sensor_id;sensor_type;location;lat;lon;timestamp;pressure;altitude;pressure_sealevel;temperature;humidity
43820;BME280;67762;52.476;6.046;2023-06-26T00:02:04;101114.16;;;24.68;54.95
43820;BME280;67762;52.476;6.046;2023-06-26T00:04:29;101112.75;;;24.66;55.50
43820;BME280;67762;52.476;6.046;2023-06-26T00:06:55;101109.94;;;24.61;55.42
43820;BME280;67762;52.476;6.046;2023-06-26T00:09:20;101100.63;;;24.57;55.89
43820;BME280;67762;52.476;6.046;2023-06-26T00:11:46;101106.56;;;24.54;55.90
43820;BME280;67762;52.476;6.046;2023-06-26T00:14:12;101104.56;;;24.49;55.77
43820;BME280;67762;52.476;6.046;2023-06-26T00:16:37;101099.38;;;24.48;55.99
43820;BME280;67762;52.476;6.046;2023-06-26T00:19:03;101094.69;;;24.43;56.08
43820;BME280;67762;52.476;6.046;2023-06-26T00:21:28;101087.00;;;24.40;55.87
43820;BME280;67762;52.476;6.046;2023-06-26T00:23:54;101093.44;;;24.34;56.69
43820;BME280;67762;52.476;6.046;2023-06-26T00:26:20;101088.72;;;24.29;56.42
43820;BME280;67762;52.476;6.046;2023-06-26T00:28:45;101088.13;;;24.27;56.68
43820;BME280;67762;52.476;6.046;2023-06-26T00:31:11;101071.78;;;24.27;56.65
43820;BME280;67762;52.476;6.046;2023-06-26T00:33:36;101075.81;;;24.25;56.42
43820;BME280;67762;52.476;6.046;2023-06-26T00:36:02;101076.56;;;24.20;56.77
43820;BME280;67762;52.476;6.046;2023-06-26T00:38:29;101080.03;;;24.16;56.85
43820;BME280;67762;52.476;6.046;2023-06-26T00:40:57;101075.78;;;24.08;57.38
43820;BME280;67762;52.476;6.046;2023-06-26T00:43:22;101070.00;;;24.05;57.32
43820;BME280;67762;52.476;6.046;2023-06-26T00:45:48;101061.72;;;24.00;57.25
43820;BME280;67762;52.476;6.046;2023-06-26T00:48:14;101066.28;;;23.94;57.52
43820;BME280;67762;52.476;6.046;2023-06-26T00:50:41;101058.34;;;23.93;57.91
43820;BME280;67762;52.476;6.046;2023-06-26T00:53:09;101059.06;;;23.88;57.77
43820;BME280;67762;52.476;6.046;2023-06-26T00:55:35;101057.59;;;23.80;58.06
43820;BME280;67762;52.476;6.046;2023-06-26T00:58:01;101057.84;;;23.79;58.24
43820;BME280;67762;52.476;6.046;2023-06-26T01:00:27;101061.53;;;23.73;58.29
43820;BME280;67762;52.476;6.046;2023-06-26T01:02:54;101046.84;;;23.74;58.28
43820;BME280;67762;52.476;6.046;2023-06-26T01:05:27;101051.72;;;23.72;58.01
43820;BME280;67762;52.476;6.046;2023-06-26T01:07:53;101045.34;;;23.66;58.41
43820;BME280;67762;52.476;6.046;2023-06-26T01:10:20;101052.09;;;23.64;58.29
43820;BME280;67762;52.476;6.046;2023-06-26T01:12:46;101047.50;;;23.64;58.31
43820;BME280;67762;52.476;6.046;2023-06-26T01:15:11;101047.50;;;23.64;58.53
43820;BME280;67762;52.476;6.046;2023-06-26T01:17:38;101049.56;;;23.57;58.54
43820;BME280;67762;52.476;6.046;2023-06-26T01:20:06;101060.09;;;23.54;58.59
43820;BME280;67762;52.476;6.046;2023-06-26T01:22:45;101048.72;;;23.57;58.50
43820;BME280;67762;52.476;6.046;2023-06-26T01:25:56;101047.91;;;23.73;57.68
43820;BME280;67762;52.476;6.046;2023-06-26T01:28:24;101051.06;;;23.81;57.56
43820;BME280;67762;52.476;6.046;2023-06-26T01:30:51;101045.63;;;23.81;57.25
43820;BME280;67762;52.476;6.046;2023-06-26T01:33:17;101049.66;;;23.79;57.44
43820;BME280;67762;52.476;6.046;2023-06-26T01:35:42;101045.41;;;23.71;57.57
43820;BME280;67762;52.476;6.046;2023-06-26T01:38:13;101047.75;;;23.63;57.96
43820;BME280;67762;52.476;6.046;2023-06-26T01:40:39;101041.88;;;23.54;58.03
43820;BME280;67762;52.476;6.046;2023-06-26T01:43:11;101037.28;;;23.43;58.32
43820;BME280;67762;52.476;6.046;2023-06-26T01:45:40;101042.28;;;23.35;58.49
43820;BME280;67762;52.476;6.046;2023-06-26T01:48:10;101047.63;;;23.29;58.57
43820;BME280;67762;52.476;6.046;2023-06-26T01:50:37;101056.50;;;23.25;58.81
43820;BME280;67762;52.476;6.046;2023-06-26T01:53:10;101059.59;;;23.17;58.94
43820;BME280;67762;52.476;6.046;2023-06-26T01:55:45;101062.13;;;23.07;59.41
43820;BME280;67762;52.476;6.046;2023-06-26T01:58:15;101060.00;;;22.97;59.67
43820;BME280;67762;52.476;6.046;2023-06-26T02:00:42;101055.19;;;22.88;59.95
43820;BME280;67762;52.476;6.046;2023-06-26T02:03:08;101057.78;;;22.83;60.09
43820;BME280;67762;52.476;6.046;2023-06-26T02:05:33;101056.84;;;22.77;60.03
43820;BME280;67762;52.476;6.046;2023-06-26T02:08:00;101062.66;;;22.69;60.40
43820;BME280;67762;52.476;6.046;2023-06-26T02:10:29;101062.41;;;22.59;60.53
43820;BME280;67762;52.476;6.046;2023-06-26T02:12:55;101068.41;;;22.49;60.77
43820;BME280;67762;52.476;6.046;2023-06-26T02:15:22;101075.28;;;22.40;61.57
43820;BME280;67762;52.476;6.046;2023-06-26T02:17:47;101075.38;;;22.34;61.79
43820;BME280;67762;52.476;6.046;2023-06-26T02:20:14;101073.03;;;22.26;61.78
43820;BME280;67762;52.476;6.046;2023-06-26T02:22:41;101077.25;;;22.22;61.68
43820;BME280;67762;52.476;6.046;2023-06-26T02:25:09;101072.28;;;22.19;61.76
43820;BME280;67762;52.476;6.046;2023-06-26T02:27:35;101070.06;;;22.16;62.00
43820;BME280;67762;52.476;6.046;2023-06-26T02:30:00;101070.06;;;22.16;61.99
43820;BME280;67762;52.476;6.046;2023-06-26T02:32:27;101063.44;;;22.11;61.93
43820;BME280;67762;52.476;6.046;2023-06-26T02:34:53;101069.13;;;22.10;62.40
43820;BME280;67762;52.476;6.046;2023-06-26T02:37:19;101060.72;;;22.11;62.71
43820;BME280;67762;52.476;6.046;2023-06-26T02:39:45;101072.41;;;22.12;62.08
43820;BME280;67762;52.476;6.046;2023-06-26T02:42:11;101071.84;;;22.10;62.83
43820;BME280;67762;52.476;6.046;2023-06-26T02:44:37;101062.84;;;22.09;62.47
43820;BME280;67762;52.476;6.046;2023-06-26T02:47:03;101063.31;;;22.06;62.31
43820;BME280;67762;52.476;6.046;2023-06-26T02:49:29;101067.78;;;22.01;62.81
43820;BME280;67762;52.476;6.046;2023-06-26T02:51:54;101071.81;;;21.98;62.73
43820;BME280;67762;52.476;6.046;2023-06-26T02:54:26;101070.00;;;21.92;62.86
43820;BME280;67762;52.476;6.046;2023-06-26T02:56:55;101078.38;;;21.91;63.33
43820;BME280;67762;52.476;6.046;2023-06-26T02:59:26;101074.41;;;21.93;63.93
43820;BME280;67762;52.476;6.046;2023-06-26T03:01:53;101088.94;;;21.99;63.39
43820;BME280;67762;52.476;6.046;2023-06-26T03:04:22;101097.44;;;22.02;63.63
43820;BME280;67762;52.476;6.046;2023-06-26T03:06:48;101098.06;;;22.04;63.01
43820;BME280;67762;52.476;6.046;2023-06-26T03:09:14;101096.97;;;22.05;63.43
43820;BME280;67762;52.476;6.046;2023-06-26T03:11:41;101099.09;;;22.03;63.04
43820;BME280;67762;52.476;6.046;2023-06-26T03:14:07;101100.59;;;21.99;63.58
43820;BME280;67762;52.476;6.046;2023-06-26T03:16:33;101103.44;;;21.93;63.74
43820;BME280;67762;52.476;6.046;2023-06-26T03:18:58;101091.63;;;21.87;64.13
43820;BME280;67762;52.476;6.046;2023-06-26T03:21:25;101096.41;;;21.85;63.86
43820;BME280;67762;52.476;6.046;2023-06-26T03:23:50;101095.81;;;21.83;64.01
43820;BME280;67762;52.476;6.046;2023-06-26T03:26:16;101096.41;;;21.85;63.95
43820;BME280;67762;52.476;6.046;2023-06-26T03:28:44;101097.41;;;21.91;64.46
43820;BME280;67762;52.476;6.046;2023-06-26T03:31:09;101092.13;;;21.96;64.02
43820;BME280;67762;52.476;6.046;2023-06-26T03:33:36;101096.47;;;21.97;64.32
43820;BME280;67762;52.476;6.046;2023-06-26T03:36:02;101095.63;;;21.96;64.19
43820;BME280;67762;52.476;6.046;2023-06-26T03:38:28;101095.41;;;21.98;64.43
43820;BME280;67762;52.476;6.046;2023-06-26T03:40:56;101097.31;;;21.97;64.56
43820;BME280;67762;52.476;6.046;2023-06-26T03:43:22;101094.00;;;21.95;64.87
43820;BME280;67762;52.476;6.046;2023-06-26T03:46:06;101093.41;;;21.93;65.17
43820;BME280;67762;52.476;6.046;2023-06-26T03:48:31;101097.88;;;21.88;65.73
43820;BME280;67762;52.476;6.046;2023-06-26T03:50:58;101098.53;;;21.83;66.28
43820;BME280;67762;52.476;6.046;2023-06-26T03:53:23;101099.69;;;21.76;66.29
43820;BME280;67762;52.476;6.046;2023-06-26T03:55:50;101111.47;;;21.70;66.95
43820;BME280;67762;52.476;6.046;2023-06-26T03:58:15;101116.97;;;21.63;67.55
43820;BME280;67762;52.476;6.046;2023-06-26T04:00:41;101107.28;;;21.55;68.36
43820;BME280;67762;52.476;6.046;2023-06-26T04:03:07;101115.16;;;21.45;68.04
43820;BME280;67762;52.476;6.046;2023-06-26T04:05:33;101119.59;;;21.40;68.49
43820;BME280;67762;52.476;6.046;2023-06-26T04:08:00;101122.97;;;21.35;68.82
43820;BME280;67762;52.476;6.046;2023-06-26T04:10:25;101119.91;;;21.32;69.72
43820;BME280;67762;52.476;6.046;2023-06-26T04:12:51;101131.69;;;21.26;69.73
43820;BME280;67762;52.476;6.046;2023-06-26T04:15:17;101146.28;;;21.25;69.58
43820;BME280;67762;52.476;6.046;2023-06-26T04:17:42;101140.03;;;21.24;69.83
43820;BME280;67762;52.476;6.046;2023-06-26T04:20:08;101141.94;;;21.24;70.29
43820;BME280;67762;52.476;6.046;2023-06-26T04:22:34;101138.53;;;21.28;70.19
43820;BME280;67762;52.476;6.046;2023-06-26T04:25:03;101143.72;;;21.30;70.09
43820;BME280;67762;52.476;6.046;2023-06-26T04:27:30;101140.34;;;21.34;69.97
43820;BME280;67762;52.476;6.046;2023-06-26T04:29:56;101140.09;;;21.36;70.24
43820;BME280;67762;52.476;6.046;2023-06-26T04:32:21;101154.97;;;21.33;70.73
43820;BME280;67762;52.476;6.046;2023-06-26T04:34:47;101158.13;;;21.30;70.72
43820;BME280;67762;52.476;6.046;2023-06-26T04:37:13;101161.16;;;21.22;70.95
43820;BME280;67762;52.476;6.046;2023-06-26T04:39:43;101162.88;;;21.17;70.71
43820;BME280;67762;52.476;6.046;2023-06-26T04:42:08;101164.59;;;21.11;70.45
43820;BME280;67762;52.476;6.046;2023-06-26T04:44:35;101162.16;;;21.03;70.81
43820;BME280;67762;52.476;6.046;2023-06-26T04:47:03;101159.75;;;20.95;71.21
43820;BME280;67762;52.476;6.046;2023-06-26T04:49:28;101153.78;;;20.86;71.46
43820;BME280;67762;52.476;6.046;2023-06-26T04:51:55;101172.81;;;20.80;71.55
43820;BME280;67762;52.476;6.046;2023-06-26T04:54:21;101160.75;;;20.76;71.68
43820;BME280;67762;52.476;6.046;2023-06-26T04:56:47;101170.19;;;20.73;71.76
43820;BME280;67762;52.476;6.046;2023-06-26T04:59:13;101171.91;;;20.68;72.41
43820;BME280;67762;52.476;6.046;2023-06-26T05:01:40;101186.72;;;20.65;72.24
43820;BME280;67762;52.476;6.046;2023-06-26T05:04:07;101189.88;;;20.62;72.28
43820;BME280;67762;52.476;6.046;2023-06-26T05:06:33;101194.22;;;20.63;72.47
43820;BME280;67762;52.476;6.046;2023-06-26T05:08:58;101197.19;;;20.62;73.17
43820;BME280;67762;52.476;6.046;2023-06-26T05:11:25;101185.28;;;20.63;73.20
43820;BME280;67762;52.476;6.046;2023-06-26T05:13:50;101198.13;;;20.74;72.67
43820;BME280;67762;52.476;6.046;2023-06-26T05:16:16;101195.97;;;20.82;72.99
43820;BME280;67762;52.476;6.046;2023-06-26T05:18:42;101202.16;;;20.89;73.44
43820;BME280;67762;52.476;6.046;2023-06-26T05:21:07;101215.66;;;20.96;73.46
43820;BME280;67762;52.476;6.046;2023-06-26T05:23:34;101215.16;;;21.06;73.36
43820;BME280;67762;52.476;6.046;2023-06-26T05:26:01;101227.03;;;21.11;72.81
43820;BME280;67762;52.476;6.046;2023-06-26T05:28:28;101229.84;;;21.23;72.74
43820;BME280;67762;52.476;6.046;2023-06-26T05:30:57;101231.81;;;21.34;72.38
43820;BME280;67762;52.476;6.046;2023-06-26T05:33:24;101230.31;;;21.38;72.05
43820;BME280;67762;52.476;6.046;2023-06-26T05:35:53;101222.53;;;21.41;71.44
43820;BME280;67762;52.476;6.046;2023-06-26T05:38:20;101240.44;;;21.49;71.42
43820;BME280;67762;52.476;6.046;2023-06-26T05:40:46;101248.81;;;21.66;70.30
43820;BME280;67762;52.476;6.046;2023-06-26T05:43:12;101252.66;;;21.76;70.01
43820;BME280;67762;52.476;6.046;2023-06-26T05:45:38;101251.44;;;21.72;68.92
43820;BME280;67762;52.476;6.046;2023-06-26T05:48:04;101256.13;;;21.65;68.57
43820;BME280;67762;52.476;6.046;2023-06-26T05:50:30;101266.28;;;21.70;68.44
43820;BME280;67762;52.476;6.046;2023-06-26T05:52:56;101269.78;;;21.77;68.00
43820;BME280;67762;52.476;6.046;2023-06-26T05:55:22;101267.66;;;21.79;67.87
43820;BME280;67762;52.476;6.046;2023-06-26T05:57:49;101269.38;;;21.55;67.84
43820;BME280;67762;52.476;6.046;2023-06-26T06:00:16;101262.72;;;21.33;68.15
43820;BME280;67762;52.476;6.046;2023-06-26T06:02:42;101285.34;;;21.27;68.61
43820;BME280;67762;52.476;6.046;2023-06-26T06:05:08;101283.63;;;21.32;67.41
43820;BME280;67762;52.476;6.046;2023-06-26T06:07:35;101283.63;;;21.32;66.42
43820;BME280;67762;52.476;6.046;2023-06-26T06:10:01;101295.69;;;21.36;64.92
43820;BME280;67762;52.476;6.046;2023-06-26T06:12:29;101286.50;;;21.37;63.95
43820;BME280;67762;52.476;6.046;2023-06-26T06:14:55;101285.81;;;21.42;63.66
43820;BME280;67762;52.476;6.046;2023-06-26T06:17:21;101301.81;;;21.50;64.07
43820;BME280;67762;52.476;6.046;2023-06-26T06:19:47;101297.22;;;21.69;63.77
43820;BME280;67762;52.476;6.046;2023-06-26T06:22:13;101303.19;;;21.77;62.97
43820;BME280;67762;52.476;6.046;2023-06-26T06:24:39;101305.00;;;21.83;63.35
43820;BME280;67762;52.476;6.046;2023-06-26T06:27:05;101325.34;;;21.99;62.72
43820;BME280;67762;52.476;6.046;2023-06-26T06:29:30;101325.13;;;22.00;61.87
43820;BME280;67762;52.476;6.046;2023-06-26T06:31:56;101328.81;;;22.06;61.60
43820;BME280;67762;52.476;6.046;2023-06-26T06:34:22;101334.31;;;22.18;61.88
43820;BME280;67762;52.476;6.046;2023-06-26T06:36:48;101344.81;;;22.14;61.29
43820;BME280;67762;52.476;6.046;2023-06-26T06:39:15;101347.91;;;22.18;61.59
43820;BME280;67762;52.476;6.046;2023-06-26T06:41:41;101349.41;;;22.32;61.58
43820;BME280;67762;52.476;6.046;2023-06-26T06:44:07;101352.34;;;22.30;61.17
43820;BME280;67762;52.476;6.046;2023-06-26T06:46:33;101346.56;;;22.27;60.55
43820;BME280;67762;52.476;6.046;2023-06-26T06:48:59;101357.03;;;22.23;60.63
43820;BME280;67762;52.476;6.046;2023-06-26T06:51:25;101357.63;;;22.25;60.71
43820;BME280;67762;52.476;6.046;2023-06-26T06:53:51;101355.50;;;22.45;60.71
43820;BME280;67762;52.476;6.046;2023-06-26T06:56:17;101352.97;;;22.62;59.51
43820;BME280;67762;52.476;6.046;2023-06-26T06:58:42;101367.13;;;22.70;58.96
43820;BME280;67762;52.476;6.046;2023-06-26T07:01:12;101364.06;;;22.79;58.23
43820;BME280;67762;52.476;6.046;2023-06-26T07:03:37;101377.66;;;22.79;58.42
43820;BME280;67762;52.476;6.046;2023-06-26T07:06:03;101380.84;;;22.76;58.80
43820;BME280;67762;52.476;6.046;2023-06-26T07:08:29;101390.22;;;22.61;58.79
43820;BME280;67762;52.476;6.046;2023-06-26T07:10:55;101374.09;;;22.48;58.66
43820;BME280;67762;52.476;6.046;2023-06-26T07:13:24;101396.06;;;22.47;59.27
43820;BME280;67762;52.476;6.046;2023-06-26T07:15:50;101395.22;;;22.46;58.83
43820;BME280;67762;52.476;6.046;2023-06-26T07:18:16;101386.53;;;22.56;58.83
43820;BME280;67762;52.476;6.046;2023-06-26T07:20:41;101386.38;;;22.69;59.27
43820;BME280;67762;52.476;6.046;2023-06-26T07:23:07;101393.69;;;22.87;58.67
43820;BME280;67762;52.476;6.046;2023-06-26T07:25:33;101402.44;;;22.89;58.43
43820;BME280;67762;52.476;6.046;2023-06-26T07:27:59;101389.38;;;23.09;58.03
43820;BME280;67762;52.476;6.046;2023-06-26T07:30:25;101402.63;;;23.17;57.63
43820;BME280;67762;52.476;6.046;2023-06-26T07:32:51;101411.75;;;23.22;57.71
43820;BME280;67762;52.476;6.046;2023-06-26T07:35:16;101419.91;;;23.11;57.35
43820;BME280;67762;52.476;6.046;2023-06-26T07:37:42;101408.84;;;22.94;57.62
43820;BME280;67762;52.476;6.046;2023-06-26T07:40:09;101416.34;;;22.81;58.10
43820;BME280;67762;52.476;6.046;2023-06-26T07:42:35;101425.69;;;22.73;58.38
43820;BME280;67762;52.476;6.046;2023-06-26T07:45:01;101419.53;;;22.78;58.47
43820;BME280;67762;52.476;6.046;2023-06-26T07:47:27;101413.91;;;22.91;58.16
43820;BME280;67762;52.476;6.046;2023-06-26T07:49:52;101427.03;;;22.82;58.31
43820;BME280;67762;52.476;6.046;2023-06-26T07:52:19;101420.00;;;22.75;58.10
43820;BME280;67762;52.476;6.046;2023-06-26T07:54:45;101423.50;;;22.63;57.99
43820;BME280;67762;52.476;6.046;2023-06-26T07:57:11;101432.41;;;22.70;58.62
43820;BME280;67762;52.476;6.046;2023-06-26T07:59:38;101437.22;;;22.87;58.01
43820;BME280;67762;52.476;6.046;2023-06-26T08:02:04;101438.22;;;23.04;57.43
43820;BME280;67762;52.476;6.046;2023-06-26T08:04:30;101438.66;;;23.30;56.00
43820;BME280;67762;52.476;6.046;2023-06-26T08:06:58;101430.78;;;23.52;55.68
43820;BME280;67762;52.476;6.046;2023-06-26T08:09:26;101428.97;;;23.35;55.30
43820;BME280;67762;52.476;6.046;2023-06-26T08:11:52;101440.25;;;23.08;55.68
43820;BME280;67762;52.476;6.046;2023-06-26T08:14:18;101443.03;;;22.90;55.81
43820;BME280;67762;52.476;6.046;2023-06-26T08:16:45;101444.13;;;23.01;56.58
43820;BME280;67762;52.476;6.046;2023-06-26T08:19:11;101443.44;;;23.35;55.95
43820;BME280;67762;52.476;6.046;2023-06-26T08:21:37;101460.81;;;23.34;55.80
43820;BME280;67762;52.476;6.046;2023-06-26T08:24:03;101455.41;;;23.16;55.93
43820;BME280;67762;52.476;6.046;2023-06-26T08:26:28;101448.41;;;23.08;56.38
43820;BME280;67762;52.476;6.046;2023-06-26T08:28:54;101452.41;;;23.24;56.42
43820;BME280;67762;52.476;6.046;2023-06-26T08:31:20;101451.16;;;23.50;56.27
43820;BME280;67762;52.476;6.046;2023-06-26T08:33:46;101453.56;;;23.69;55.16
43820;BME280;67762;52.476;6.046;2023-06-26T08:36:12;101460.09;;;24.03;55.68
43820;BME280;67762;52.476;6.046;2023-06-26T08:38:38;101462.50;;;24.11;54.86
43820;BME280;67762;52.476;6.046;2023-06-26T08:41:06;101459.72;;;23.88;55.49
43820;BME280;67762;52.476;6.046;2023-06-26T08:43:33;101461.88;;;23.63;55.84
43820;BME280;67762;52.476;6.046;2023-06-26T08:45:59;101472.75;;;23.74;56.20
43820;BME280;67762;52.476;6.046;2023-06-26T08:48:25;101475.16;;;24.06;55.83
43820;BME280;67762;52.476;6.046;2023-06-26T08:50:53;101475.25;;;23.99;54.99
43820;BME280;67762;52.476;6.046;2023-06-26T08:56:04;101492.25;;;23.18;56.17
43820;BME280;67762;52.476;6.046;2023-06-26T08:58:30;101492.44;;;23.05;57.12
43820;BME280;67762;52.476;6.046;2023-06-26T09:00:57;101489.69;;;23.23;57.15
43820;BME280;67762;52.476;6.046;2023-06-26T09:03:23;101483.50;;;23.58;56.55
43820;BME280;67762;52.476;6.046;2023-06-26T09:05:50;101483.47;;;24.22;55.52
43820;BME280;67762;52.476;6.046;2023-06-26T09:08:16;101490.69;;;24.52;54.53
43820;BME280;67762;52.476;6.046;2023-06-26T09:10:41;101498.19;;;24.21;53.74
43820;BME280;67762;52.476;6.046;2023-06-26T09:13:07;101496.47;;;23.74;55.01
43820;BME280;67762;52.476;6.046;2023-06-26T09:15:42;101502.13;;;23.61;54.68
43820;BME280;67762;52.476;6.046;2023-06-26T09:18:08;101493.91;;;23.91;53.85
43820;BME280;67762;52.476;6.046;2023-06-26T09:20:34;101500.91;;;24.44;53.08
43820;BME280;67762;52.476;6.046;2023-06-26T09:23:00;101497.22;;;24.27;52.78
43820;BME280;67762;52.476;6.046;2023-06-26T09:25:28;101507.91;;;24.40;51.57
43820;BME280;67762;52.476;6.046;2023-06-26T09:27:55;101506.44;;;24.84;50.99
43820;BME280;67762;52.476;6.046;2023-06-26T09:30:21;101507.13;;;25.20;50.49
43820;BME280;67762;52.476;6.046;2023-06-26T09:32:47;101514.16;;;24.64;50.50
43820;BME280;67762;52.476;6.046;2023-06-26T09:35:12;101504.75;;;24.83;50.45
43820;BME280;67762;52.476;6.046;2023-06-26T09:37:38;101518.41;;;24.72;50.15
43820;BME280;67762;52.476;6.046;2023-06-26T09:40:04;101505.97;;;24.06;51.32
43820;BME280;67762;52.476;6.046;2023-06-26T09:42:30;101491.22;;;23.61;53.53
43820;BME280;67762;52.476;6.046;2023-06-26T09:44:56;101531.34;;;23.42;53.96
43820;BME280;67762;52.476;6.046;2023-06-26T09:47:23;101535.34;;;23.21;53.30
43820;BME280;67762;52.476;6.046;2023-06-26T09:49:49;101532.97;;;23.73;52.18
43820;BME280;67762;52.476;6.046;2023-06-26T09:52:16;101537.31;;;24.15;51.34
43820;BME280;67762;52.476;6.046;2023-06-26T09:54:45;101528.91;;;24.52;50.49
43820;BME280;67762;52.476;6.046;2023-06-26T09:57:13;101527.59;;;25.06;49.21
43820;BME280;67762;52.476;6.046;2023-06-26T09:59:40;101534.25;;;25.10;48.15
43820;BME280;67762;52.476;6.046;2023-06-26T10:02:06;101550.00;;;24.56;46.69
43820;BME280;67762;52.476;6.046;2023-06-26T10:04:32;101553.19;;;24.53;46.75
43820;BME280;67762;52.476;6.046;2023-06-26T10:07:01;101539.16;;;24.96;47.35
43820;BME280;67762;52.476;6.046;2023-06-26T10:09:27;101551.13;;;25.35;46.42
43820;BME280;67762;52.476;6.046;2023-06-26T10:12:03;101557.41;;;25.47;46.01
43820;BME280;67762;52.476;6.046;2023-06-26T10:14:34;101551.50;;;25.83;45.04
43820;BME280;67762;52.476;6.046;2023-06-26T10:17:13;101559.91;;;25.48;45.98
43820;BME280;67762;52.476;6.046;2023-06-26T10:19:45;101549.25;;;24.95;46.61
43820;BME280;67762;52.476;6.046;2023-06-26T10:22:17;101564.53;;;25.08;46.25
43820;BME280;67762;52.476;6.046;2023-06-26T10:24:44;101563.31;;;25.44;45.71
43820;BME280;67762;52.476;6.046;2023-06-26T10:27:21;101577.41;;;25.24;43.84
43820;BME280;67762;52.476;6.046;2023-06-26T10:29:50;101575.13;;;25.33;43.95
43820;BME280;67762;52.476;6.046;2023-06-26T10:32:18;101574.75;;;25.01;44.27
43820;BME280;67762;52.476;6.046;2023-06-26T10:34:46;101578.44;;;25.07;44.43
43820;BME280;67762;52.476;6.046;2023-06-26T10:37:12;101569.66;;;25.33;44.46
43820;BME280;67762;52.476;6.046;2023-06-26T10:39:54;101590.38;;;25.17;44.81
43820;BME280;67762;52.476;6.046;2023-06-26T10:42:36;101598.53;;;24.89;45.73
43820;BME280;67762;52.476;6.046;2023-06-26T10:45:17;101595.28;;;24.11;47.21
43820;BME280;67762;52.476;6.046;2023-06-26T10:47:47;101609.31;;;24.49;47.22
43820;BME280;67762;52.476;6.046;2023-06-26T10:50:17;101601.50;;;24.87;46.71
43820;BME280;67762;52.476;6.046;2023-06-26T10:52:44;101606.50;;;24.90;46.96
43820;BME280;67762;52.476;6.046;2023-06-26T10:55:10;101610.34;;;25.18;45.75
43820;BME280;67762;52.476;6.046;2023-06-26T10:57:36;101610.84;;;25.03;44.89
43820;BME280;67762;52.476;6.046;2023-06-26T11:00:10;101610.06;;;25.31;45.15
43820;BME280;67762;52.476;6.046;2023-06-26T11:02:49;101600.88;;;24.85;45.41
43820;BME280;67762;52.476;6.046;2023-06-26T11:05:25;101621.41;;;24.53;46.30
43820;BME280;67762;52.476;6.046;2023-06-26T11:08:09;101610.75;;;23.87;46.68
43820;BME280;67762;52.476;6.046;2023-06-26T11:10:54;101619.66;;;24.06;47.59
43820;BME280;67762;52.476;6.046;2023-06-26T11:13:26;101616.31;;;24.80;46.20
43820;BME280;67762;52.476;6.046;2023-06-26T11:15:52;101617.50;;;24.61;46.00
43820;BME280;67762;52.476;6.046;2023-06-26T11:18:17;101625.78;;;25.12;45.52
43820;BME280;67762;52.476;6.046;2023-06-26T11:20:43;101617.94;;;25.16;44.23
43820;BME280;67762;52.476;6.046;2023-06-26T11:23:09;101617.75;;;24.48;43.87
43820;BME280;67762;52.476;6.046;2023-06-26T11:25:36;101625.56;;;24.44;44.40
43820;BME280;67762;52.476;6.046;2023-06-26T11:28:04;101627.03;;;24.93;44.38
43820;BME280;67762;52.476;6.046;2023-06-26T11:30:30;101640.63;;;25.16;43.36
43820;BME280;67762;52.476;6.046;2023-06-26T11:33:05;101630.22;;;24.90;43.37
43820;BME280;67762;52.476;6.046;2023-06-26T11:35:31;101638.53;;;24.95;43.98
43820;BME280;67762;52.476;6.046;2023-06-26T11:37:58;101641.16;;;25.30;43.37
43820;BME280;67762;52.476;6.046;2023-06-26T11:40:26;101637.31;;;25.14;42.64
43820;BME280;67762;52.476;6.046;2023-06-26T11:43:00;101651.09;;;24.73;43.33
43820;BME280;67762;52.476;6.046;2023-06-26T11:45:31;101658.91;;;24.69;42.74
43820;BME280;67762;52.476;6.046;2023-06-26T11:47:57;101655.38;;;24.57;43.00
43820;BME280;67762;52.476;6.046;2023-06-26T11:50:24;101648.06;;;24.28;43.45
43820;BME280;67762;52.476;6.046;2023-06-26T11:52:57;101664.06;;;24.13;44.28
43820;BME280;67762;52.476;6.046;2023-06-26T11:55:24;101658.09;;;24.46;44.54
43820;BME280;67762;52.476;6.046;2023-06-26T11:57:52;101661.03;;;24.44;44.26
43820;BME280;67762;52.476;6.046;2023-06-26T12:00:19;101669.16;;;24.85;44.08
43820;BME280;67762;52.476;6.046;2023-06-26T12:02:45;101669.72;;;25.11;42.77
43820;BME280;67762;52.476;6.046;2023-06-26T12:05:13;101668.91;;;24.98;43.65
43820;BME280;67762;52.476;6.046;2023-06-26T12:07:41;101683.75;;;25.02;41.48
43820;BME280;67762;52.476;6.046;2023-06-26T12:10:10;101679.84;;;24.98;41.48
43820;BME280;67762;52.476;6.046;2023-06-26T12:12:36;101694.06;;;25.12;41.70
43820;BME280;67762;52.476;6.046;2023-06-26T12:15:02;101703.22;;;25.06;41.48
43820;BME280;67762;52.476;6.046;2023-06-26T12:17:28;101697.75;;;25.29;41.60
43820;BME280;67762;52.476;6.046;2023-06-26T12:19:54;101690.69;;;25.45;41.75
43820;BME280;67762;52.476;6.046;2023-06-26T12:22:20;101703.28;;;25.86;41.79
43820;BME280;67762;52.476;6.046;2023-06-26T12:24:46;101706.47;;;26.23;40.32
43820;BME280;67762;52.476;6.046;2023-06-26T12:27:14;101704.25;;;26.08;40.66
43820;BME280;67762;52.476;6.046;2023-06-26T12:29:51;101709.88;;;25.73;39.78
43820;BME280;67762;52.476;6.046;2023-06-26T12:32:18;101687.41;;;25.99;39.94
43820;BME280;67762;52.476;6.046;2023-06-26T12:34:48;101712.34;;;26.14;39.68
43820;BME280;67762;52.476;6.046;2023-06-26T12:37:15;101700.09;;;26.17;40.49
43820;BME280;67762;52.476;6.046;2023-06-26T12:39:45;101718.38;;;25.88;40.97
43820;BME280;67762;52.476;6.046;2023-06-26T12:42:17;101731.34;;;25.93;41.18
43820;BME280;67762;52.476;6.046;2023-06-26T12:44:43;101707.97;;;26.30;40.79
43820;BME280;67762;52.476;6.046;2023-06-26T12:47:09;101698.53;;;26.21;40.19
43820;BME280;67762;52.476;6.046;2023-06-26T12:49:42;101711.13;;;26.39;39.91
43820;BME280;67762;52.476;6.046;2023-06-26T12:52:10;101710.34;;;26.10;38.32
43820;BME280;67762;52.476;6.046;2023-06-26T12:54:37;101719.25;;;25.26;39.90